»·PEaware :: LV06S KSAN-KLAS

LV06S :: KSAN-KLAS

FLIGHT INFORMATION

Flight Status: Arrived
Operator: Privately registered:
Argentina
More flights under this callsign
Pilot: Alex H. (7015)
Aircraft: PIPER PA-44 SEMINOLE
(PA44)
More flights by this aircraft type
Origin: KSAN San Diego Intl-Lindbergh
United States
Destination: KLAS Harry Reid Intl
United States
More flights between these airports :: More routes between these airports
Route: +JLI V514 GFS V538 CRESO V21 BLD
File this flight plan on PilotEdge
Remarks:
Altitude:
(Current/Filed)
9,000ft
Speed:
(Current/Filed)
130kts
Departed: 09-May-15 12:59 PM
Arrived: 09-May-15 02:54 PM
Distance/Time
Traveled:
224nm/1:54
Distance/Time
To Go:
Arrived

Flight Plot

Page will automatically refresh every two minutes.


Map Options




Map Legend


Flown Route
Filed Route
Departure Airport
Arrival Airport
Navaid (VOR, NDB)
Fix

Horizontal Profiles

Position Reports

Time Latitude Longitude Heading Altitude Ground
Speed
09-May-15 12:39 32.732298 -117.193283 199 18ft 0kts
09-May-15 12:40 32.732298 -117.193283 199 18ft 0kts
09-May-15 12:41 32.732297 -117.193283 199 18ft 0kts
09-May-15 12:42 32.732296 -117.193283 199 18ft 0kts
09-May-15 12:43 32.732296 -117.193284 199 18ft 0kts
09-May-15 12:44 32.732295 -117.193284 199 18ft 0kts
09-May-15 12:45 32.732294 -117.193284 199 18ft 0kts
09-May-15 12:46 32.732294 -117.193285 199 18ft 0kts
09-May-15 12:47 32.732831 -117.193714 341 18ft 8kts
09-May-15 12:48 32.733253 -117.192585 107 18ft 7kts
09-May-15 12:49 32.732713 -117.190009 104 18ft 8kts
09-May-15 12:50 32.731934 -117.186730 106 18ft 4kts
09-May-15 12:51 32.731404 -117.184506 105 18ft 5kts
09-May-15 12:52 32.729922 -117.178221 104 18ft 2kts
09-May-15 12:53 32.729644 -117.176469 67 18ft 0kts
09-May-15 12:54 32.729644 -117.176469 67 18ft 0kts
09-May-15 12:55 32.729779 -117.176114 66 18ft 11kts
09-May-15 12:56 32.731477 -117.180972 286 33ft 85kts
09-May-15 12:57 32.744493 -117.203375 322 1648ft 93kts
09-May-15 12:58 32.773435 -117.226111 323 2000ft 143kts
09-May-15 12:59 32.806487 -117.252290 323 2026ft 139kts
09-May-15 13:00 32.835932 -117.275380 323 2598ft 117kts
09-May-15 13:01 32.857402 -117.297615 293 3389ft 90kts
09-May-15 13:02 32.868411 -117.323506 292 3949ft 100kts
09-May-15 13:03 32.890082 -117.346821 16 4011ft 128kts
09-May-15 13:04 32.910025 -117.319726 80 4585ft 109kts
09-May-15 13:05 32.918801 -117.287103 67 5182ft 102kts
09-May-15 13:06 32.929160 -117.255807 67 5802ft 100kts
09-May-15 13:07 32.939072 -117.225311 68 6419ft 100kts
09-May-15 13:08 32.949106 -117.193509 68 7059ft 103kts
09-May-15 13:09 32.959248 -117.161679 68 7676ft 102kts
09-May-15 13:10 32.969647 -117.128865 69 8328ft 109kts
09-May-15 13:11 32.980558 -117.094338 69 8854ft 118kts
09-May-15 13:12 32.991340 -117.059850 69 8848ft 143kts
09-May-15 13:13 33.008227 -117.006342 69 8839ft 148kts
09-May-15 13:14 33.022843 -116.960151 69 8835ft 149kts
09-May-15 13:15 33.035096 -116.921382 69 8834ft 149kts
09-May-15 13:16 33.049758 -116.874911 69 8832ft 149kts
09-May-15 13:17 33.064423 -116.828379 69 8840ft 151kts
09-May-15 13:18 33.079373 -116.780849 69 8856ft 154kts
09-May-15 13:19 33.095203 -116.730422 69 8828ft 159kts
09-May-15 13:20 33.110778 -116.680821 69 8841ft 157kts
09-May-15 13:21 33.126676 -116.630083 69 8796ft 158kts
09-May-15 13:22 33.143175 -116.583228 45 8886ft 146kts
09-May-15 13:23 33.176482 -116.554794 34 8899ft 149kts
09-May-15 13:24 33.210692 -116.525039 34 8878ft 151kts
09-May-15 13:25 33.244432 -116.495354 42 8853ft 151kts
09-May-15 13:26 33.265896 -116.455364 15 8842ft 147kts
09-May-15 13:27 33.305544 -116.439926 25 8847ft 153kts
09-May-15 13:28 33.343232 -116.409996 34 8825ft 162kts
09-May-15 13:29 33.379718 -116.377837 35 8813ft 155kts
09-May-15 13:30 33.415397 -116.346607 34 8804ft 154kts
09-May-15 13:31 33.451056 -116.315439 35 8793ft 155kts
09-May-15 13:32 33.486722 -116.284223 34 8763ft 152kts
09-May-15 13:33 33.520080 -116.255032 34 8745ft 146kts
09-May-15 13:34 33.548953 -116.229751 35 8759ft 149kts
09-May-15 13:35 33.584305 -116.198677 35 8747ft 155kts
09-May-15 13:36 33.619889 -116.167378 35 8745ft 156kts
09-May-15 13:37 33.656306 -116.137129 31 8730ft 153kts
09-May-15 13:38 33.691723 -116.109161 31 8727ft 149kts
09-May-15 13:39 33.726199 -116.081584 32 8727ft 146kts
09-May-15 13:40 33.759574 -116.054970 31 8759ft 146kts
09-May-15 13:41 33.795310 -116.026103 32 8732ft 153kts
09-May-15 13:42 33.830641 -115.997567 32 8739ft 147kts
09-May-15 13:43 33.864347 -115.970465 32 8790ft 147kts
09-May-15 13:44 33.900437 -115.941334 32 8778ft 155kts
09-May-15 13:45 33.936217 -115.912416 32 8777ft 149kts
09-May-15 13:46 33.969979 -115.885192 32 8822ft 147kts
09-May-15 13:47 34.005982 -115.856062 33 8813ft 156kts
09-May-15 13:48 34.042741 -115.826313 36 8819ft 155kts
09-May-15 13:49 34.078760 -115.796866 36 8821ft 153kts
09-May-15 13:50 34.114300 -115.767161 36 8831ft 153kts
09-May-15 13:51 34.147592 -115.739594 36 9278ft 129kts
09-May-15 13:52 34.170980 -115.714112 59 9803ft 105kts
09-May-15 13:53 34.194063 -115.678393 49 9476ft 158kts
09-May-15 13:54 34.227736 -115.639929 45 8886ft 165kts
09-May-15 13:55 34.259425 -115.604648 46 8829ft 148kts
09-May-15 13:56 34.290628 -115.569444 46 8792ft 146kts
09-May-15 13:57 34.319241 -115.537290 46 8838ft 142kts
09-May-15 13:58 34.357345 -115.515951 20 8849ft 153kts
09-May-15 13:59 34.398235 -115.498254 20 8864ft 153kts
09-May-15 14:00 34.439215 -115.480394 20 8858ft 153kts
09-May-15 14:01 34.479659 -115.462792 20 8851ft 149kts
09-May-15 14:02 34.518894 -115.445711 20 8839ft 146kts
09-May-15 14:03 34.556896 -115.429171 20 8840ft 143kts
09-May-15 14:04 34.594552 -115.412737 20 8830ft 142kts
09-May-15 14:05 34.632162 -115.396298 20 8843ft 147kts
09-May-15 14:06 34.672646 -115.381060 8 8820ft 149kts
09-May-15 14:07 34.713546 -115.374863 7 8816ft 144kts
09-May-15 14:08 34.753353 -115.367518 9 8834ft 148kts
09-May-15 14:09 34.796711 -115.358918 9 8823ft 159kts
09-May-15 14:10 34.840831 -115.350237 9 8799ft 153kts
09-May-15 14:11 34.882283 -115.342154 9 8822ft 153kts
09-May-15 14:12 34.925653 -115.333618 9 8796ft 153kts
09-May-15 14:13 34.967176 -115.325491 9 8820ft 153kts
09-May-15 14:14 35.010649 -115.316907 9 8801ft 154kts
09-May-15 14:15 35.052407 -115.308708 9 8799ft 151kts
09-May-15 14:16 35.094657 -115.300391 9 8813ft 155kts
09-May-15 14:17 35.131466 -115.293099 8 8804ft 156kts
09-May-15 14:18 35.182198 -115.283080 8 8804ft 151kts
09-May-15 14:19 35.215993 -115.276446 8 8832ft 146kts
09-May-15 14:20 35.258234 -115.268074 9 8807ft 153kts
09-May-15 14:21 35.307339 -115.258335 8 8795ft 150kts
09-May-15 14:22 35.341054 -115.251681 8 8806ft 146kts
09-May-15 14:23 35.381645 -115.243640 8 8831ft 148kts
09-May-15 14:24 35.425070 -115.234955 9 8826ft 157kts
09-May-15 14:25 35.469351 -115.223455 12 8823ft 158kts
09-May-15 14:26 35.513241 -115.211835 12 8825ft 157kts
09-May-15 14:27 35.556951 -115.200191 12 8822ft 156kts
09-May-15 14:28 35.599801 -115.188713 11 8826ft 155kts
09-May-15 14:29 35.643553 -115.176921 11 8827ft 157kts
09-May-15 14:30 35.687001 -115.165193 12 8837ft 156kts
09-May-15 14:31 35.730777 -115.153376 12 8829ft 156kts
09-May-15 14:32 35.773507 -115.141829 11 8833ft 154kts
09-May-15 14:33 35.817144 -115.130025 11 8838ft 156kts
09-May-15 14:34 35.862250 -115.117817 12 8447ft 171kts
09-May-15 14:35 35.908902 -115.105072 12 7914ft 170kts
09-May-15 14:36 35.956435 -115.091893 12 7340ft 172kts
09-May-15 14:37 36.003526 -115.078776 11 6855ft 170kts
09-May-15 14:38 36.048881 -115.065571 12 6826ft 162kts
09-May-15 14:39 36.094036 -115.052356 11 6801ft 162kts
09-May-15 14:40 36.138788 -115.065476 341 6490ft 169kts
09-May-15 14:41 36.178747 -115.076629 344 5539ft 132kts
09-May-15 14:42 36.205140 -115.068849 88 4316ft 89kts
09-May-15 14:43 36.198942 -115.046760 160 3933ft 55kts
09-May-15 14:44 36.186666 -115.050199 209 3303ft 53kts
09-May-15 14:45 36.170099 -115.066671 222 3545ft 78kts
09-May-15 14:46 36.156208 -115.089576 242 3680ft 89kts
09-May-15 14:47 36.142669 -115.114909 233 3499ft 88kts
09-May-15 14:48 36.129479 -115.136603 217 2998ft 71kts
09-May-15 14:49 36.113035 -115.148948 201 2733ft 62kts
09-May-15 14:50 36.096960 -115.157933 196 2197ft 58kts
09-May-15 14:51 36.094034 -115.160394 286 2184ft 0kts
09-May-15 14:52 36.094034 -115.160394 286 2184ft 0kts
09-May-15 14:53 36.093535 -115.161345 204 2184ft 0kts
09-May-15 14:54 36.092361 -115.162009 203 2184ft 6kts
09-May-15 14:55 36.090997 -115.162760 204 2184ft 5kts
09-May-15 14:56 36.088784 -115.164003 203 2184ft 9kts
09-May-15 14:57 36.086385 -115.165337 203 2184ft 11kts
09-May-15 14:58 36.083922 -115.166720 203 2184ft 13kts
09-May-15 14:59 36.082537 -115.168450 233 2184ft 11kts
09-May-15 15:00 36.080787 -115.170231 224 2184ft 4kts
09-May-15 15:01 36.080530 -115.170905 268 2184ft 0kts

Navigation Log

Ident Type
Flight plan parsing failed, navigation log unavailable